sensor_id;sensor_type;location;lat;lon;timestamp;temperature;humidity
3818;DHT22;1924;48.078;11.516;2023-08-06T00:01:29;15.50;99.90
3818;DHT22;1924;48.078;11.516;2023-08-06T00:03:55;15.50;99.90
3818;DHT22;1924;48.078;11.516;2023-08-06T00:06:22;15.50;99.90
3818;DHT22;1924;48.078;11.516;2023-08-06T00:08:52;15.50;99.90
3818;DHT22;1924;48.078;11.516;2023-08-06T00:11:21;15.50;99.90
3818;DHT22;1924;48.078;11.516;2023-08-06T00:13:50;15.50;99.90
3818;DHT22;1924;48.078;11.516;2023-08-06T00:16:16;15.50;99.90
3818;DHT22;1924;48.078;11.516;2023-08-06T00:18:43;15.50;99.90
3818;DHT22;1924;48.078;11.516;2023-08-06T00:21:10;15.50;99.90
3818;DHT22;1924;48.078;11.516;2023-08-06T00:23:38;15.50;99.90
3818;DHT22;1924;48.078;11.516;2023-08-06T00:26:05;15.50;99.90
3818;DHT22;1924;48.078;11.516;2023-08-06T00:28:32;15.50;99.90
3818;DHT22;1924;48.078;11.516;2023-08-06T00:31:00;15.40;99.90
3818;DHT22;1924;48.078;11.516;2023-08-06T00:33:27;15.40;99.90
3818;DHT22;1924;48.078;11.516;2023-08-06T00:35:54;15.40;99.90
3818;DHT22;1924;48.078;11.516;2023-08-06T00:38:21;15.30;99.90
3818;DHT22;1924;48.078;11.516;2023-08-06T00:40:48;15.30;99.90
3818;DHT22;1924;48.078;11.516;2023-08-06T04:06:12;14.30;99.90
3818;DHT22;1924;48.078;11.516;2023-08-06T04:08:39;14.40;99.90
3818;DHT22;1924;48.078;11.516;2023-08-06T04:11:06;14.40;99.90
3818;DHT22;1924;48.078;11.516;2023-08-06T04:13:33;14.30;99.90
3818;DHT22;1924;48.078;11.516;2023-08-06T04:16:01;14.30;99.90
3818;DHT22;1924;48.078;11.516;2023-08-06T04:18:28;14.20;99.90
3818;DHT22;1924;48.078;11.516;2023-08-06T04:20:55;14.20;99.90
3818;DHT22;1924;48.078;11.516;2023-08-06T04:23:24;14.20;99.90
3818;DHT22;1924;48.078;11.516;2023-08-06T04:25:50;14.20;99.90
3818;DHT22;1924;48.078;11.516;2023-08-06T04:28:17;14.30;99.90
3818;DHT22;1924;48.078;11.516;2023-08-06T04:30:44;14.30;99.90
3818;DHT22;1924;48.078;11.516;2023-08-06T04:33:11;14.30;99.90
3818;DHT22;1924;48.078;11.516;2023-08-06T04:35:38;14.30;99.90
3818;DHT22;1924;48.078;11.516;2023-08-06T04:38:05;14.30;99.90
3818;DHT22;1924;48.078;11.516;2023-08-06T04:40:34;14.20;99.90
3818;DHT22;1924;48.078;11.516;2023-08-06T04:43:01;14.30;99.90
3818;DHT22;1924;48.078;11.516;2023-08-06T04:45:29;14.30;99.90
3818;DHT22;1924;48.078;11.516;2023-08-06T04:47:56;14.30;99.90
3818;DHT22;1924;48.078;11.516;2023-08-06T04:52:48;14.40;99.90
3818;DHT22;1924;48.078;11.516;2023-08-06T04:55:15;14.40;99.90
3818;DHT22;1924;48.078;11.516;2023-08-06T04:57:43;14.50;99.90
3818;DHT22;1924;48.078;11.516;2023-08-06T05:00:11;14.50;99.90
3818;DHT22;1924;48.078;11.516;2023-08-06T05:02:38;14.50;99.90
3818;DHT22;1924;48.078;11.516;2023-08-06T05:05:05;14.50;99.90
3818;DHT22;1924;48.078;11.516;2023-08-06T05:10:08;14.50;99.90
3818;DHT22;1924;48.078;11.516;2023-08-06T05:12:37;14.40;99.90
3818;DHT22;1924;48.078;11.516;2023-08-06T05:15:06;14.40;99.90
3818;DHT22;1924;48.078;11.516;2023-08-06T05:17:33;14.40;99.90
3818;DHT22;1924;48.078;11.516;2023-08-06T05:22:25;14.50;99.90
3818;DHT22;1924;48.078;11.516;2023-08-06T05:24:52;14.50;99.90
3818;DHT22;1924;48.078;11.516;2023-08-06T05:27:20;14.50;99.90
3818;DHT22;1924;48.078;11.516;2023-08-06T05:29:48;14.50;99.90
3818;DHT22;1924;48.078;11.516;2023-08-06T05:32:16;14.50;99.90
3818;DHT22;1924;48.078;11.516;2023-08-06T05:37:18;14.50;99.90
3818;DHT22;1924;48.078;11.516;2023-08-06T05:39:46;14.50;99.90
3818;DHT22;1924;48.078;11.516;2023-08-06T05:42:13;14.60;99.90
3818;DHT22;1924;48.078;11.516;2023-08-06T05:47:17;14.50;99.90
3818;DHT22;1924;48.078;11.516;2023-08-06T05:54:48;14.70;99.90
3818;DHT22;1924;48.078;11.516;2023-08-06T06:02:21;14.70;99.90
3818;DHT22;1924;48.078;11.516;2023-08-06T06:04:48;14.80;99.90
3818;DHT22;1924;48.078;11.516;2023-08-06T06:07:15;14.80;99.90
3818;DHT22;1924;48.078;11.516;2023-08-06T06:09:42;14.80;99.90
3818;DHT22;1924;48.078;11.516;2023-08-06T06:12:09;14.90;99.90
3818;DHT22;1924;48.078;11.516;2023-08-06T06:14:36;14.80;99.90
3818;DHT22;1924;48.078;11.516;2023-08-06T06:17:03;14.80;99.90
3818;DHT22;1924;48.078;11.516;2023-08-06T06:25:30;15.00;99.90
3818;DHT22;1924;48.078;11.516;2023-08-06T06:27:57;15.10;99.90
3818;DHT22;1924;48.078;11.516;2023-08-06T06:30:25;15.20;99.90
3818;DHT22;1924;48.078;11.516;2023-08-06T06:32:52;15.40;99.90
3818;DHT22;1924;48.078;11.516;2023-08-06T06:35:18;15.40;99.90
3818;DHT22;1924;48.078;11.516;2023-08-06T06:37:45;15.40;99.90
3818;DHT22;1924;48.078;11.516;2023-08-06T06:40:12;15.60;99.90
3818;DHT22;1924;48.078;11.516;2023-08-06T06:42:42;15.90;99.90
3818;DHT22;1924;48.078;11.516;2023-08-06T06:45:09;16.10;99.90
3818;DHT22;1924;48.078;11.516;2023-08-06T06:47:36;16.20;99.90
3818;DHT22;1924;48.078;11.516;2023-08-06T06:50:03;16.20;99.90
3818;DHT22;1924;48.078;11.516;2023-08-06T06:52:30;16.20;99.90
3818;DHT22;1924;48.078;11.516;2023-08-06T06:54:57;16.20;99.90
3818;DHT22;1924;48.078;11.516;2023-08-06T06:57:23;16.30;99.90
3818;DHT22;1924;48.078;11.516;2023-08-06T06:59:51;16.40;99.90
3818;DHT22;1924;48.078;11.516;2023-08-06T07:02:18;16.30;99.90
3818;DHT22;1924;48.078;11.516;2023-08-06T07:04:45;16.10;99.90
3818;DHT22;1924;48.078;11.516;2023-08-06T07:07:12;16.30;99.90
3818;DHT22;1924;48.078;11.516;2023-08-06T07:09:39;16.40;99.90
3818;DHT22;1924;48.078;11.516;2023-08-06T07:12:06;16.50;99.90
3818;DHT22;1924;48.078;11.516;2023-08-06T07:14:35;16.50;99.90
3818;DHT22;1924;48.078;11.516;2023-08-06T07:17:04;16.50;99.90
3818;DHT22;1924;48.078;11.516;2023-08-06T07:19:31;16.40;99.90
3818;DHT22;1924;48.078;11.516;2023-08-06T07:21:58;16.30;99.90
3818;DHT22;1924;48.078;11.516;2023-08-06T07:24:26;16.10;99.90
3818;DHT22;1924;48.078;11.516;2023-08-06T07:26:53;15.90;99.90
3818;DHT22;1924;48.078;11.516;2023-08-06T07:29:28;15.90;99.90
3818;DHT22;1924;48.078;11.516;2023-08-06T07:31:55;15.70;99.90
3818;DHT22;1924;48.078;11.516;2023-08-06T07:36:59;15.60;99.90
3818;DHT22;1924;48.078;11.516;2023-08-06T07:39:26;15.50;99.90
3818;DHT22;1924;48.078;11.516;2023-08-06T07:41:55;15.40;99.90
3818;DHT22;1924;48.078;11.516;2023-08-06T07:44:22;15.40;99.90
3818;DHT22;1924;48.078;11.516;2023-08-06T07:46:51;15.40;99.90
3818;DHT22;1924;48.078;11.516;2023-08-06T07:49:17;15.40;99.90
3818;DHT22;1924;48.078;11.516;2023-08-06T07:51:45;15.50;99.90
3818;DHT22;1924;48.078;11.516;2023-08-06T07:54:14;15.50;99.90
3818;DHT22;1924;48.078;11.516;2023-08-06T07:56:41;15.50;99.90
3818;DHT22;1924;48.078;11.516;2023-08-06T07:59:07;15.50;99.90
3818;DHT22;1924;48.078;11.516;2023-08-06T08:01:34;15.60;99.90
3818;DHT22;1924;48.078;11.516;2023-08-06T08:04:01;15.80;99.90
3818;DHT22;1924;48.078;11.516;2023-08-06T08:06:28;15.90;99.90
3818;DHT22;1924;48.078;11.516;2023-08-06T08:08:54;16.00;99.90
3818;DHT22;1924;48.078;11.516;2023-08-06T08:11:25;16.10;99.90
3818;DHT22;1924;48.078;11.516;2023-08-06T08:13:51;16.20;99.90
3818;DHT22;1924;48.078;11.516;2023-08-06T08:16:18;16.40;99.90
3818;DHT22;1924;48.078;11.516;2023-08-06T08:18:45;16.60;99.90
3818;DHT22;1924;48.078;11.516;2023-08-06T08:21:11;16.60;99.90
3818;DHT22;1924;48.078;11.516;2023-08-06T08:23:38;16.60;99.90
3818;DHT22;1924;48.078;11.516;2023-08-06T08:26:07;16.60;99.90
3818;DHT22;1924;48.078;11.516;2023-08-06T08:28:35;16.50;99.90
3818;DHT22;1924;48.078;11.516;2023-08-06T08:31:02;16.60;99.90
3818;DHT22;1924;48.078;11.516;2023-08-06T08:33:28;16.50;99.90
3818;DHT22;1924;48.078;11.516;2023-08-06T08:35:55;16.50;99.90
3818;DHT22;1924;48.078;11.516;2023-08-06T08:38:22;16.50;99.90
3818;DHT22;1924;48.078;11.516;2023-08-06T08:40:52;16.50;99.90
3818;DHT22;1924;48.078;11.516;2023-08-06T08:43:21;16.40;99.90
3818;DHT22;1924;48.078;11.516;2023-08-06T08:45:50;16.50;99.90
3818;DHT22;1924;48.078;11.516;2023-08-06T08:48:18;16.50;99.90
3818;DHT22;1924;48.078;11.516;2023-08-06T08:50:47;16.70;99.90
3818;DHT22;1924;48.078;11.516;2023-08-06T08:53:15;16.60;99.90
3818;DHT22;1924;48.078;11.516;2023-08-06T08:55:43;16.60;99.90
3818;DHT22;1924;48.078;11.516;2023-08-06T08:58:10;16.50;99.90
3818;DHT22;1924;48.078;11.516;2023-08-06T09:00:37;16.60;99.90
3818;DHT22;1924;48.078;11.516;2023-08-06T09:03:06;16.50;99.90
3818;DHT22;1924;48.078;11.516;2023-08-06T09:05:33;16.50;99.90
3818;DHT22;1924;48.078;11.516;2023-08-06T09:08:02;16.40;99.90
3818;DHT22;1924;48.078;11.516;2023-08-06T09:10:30;16.20;99.90
3818;DHT22;1924;48.078;11.516;2023-08-06T09:12:57;16.20;99.90
3818;DHT22;1924;48.078;11.516;2023-08-06T09:15:28;16.10;99.90
3818;DHT22;1924;48.078;11.516;2023-08-06T09:17:55;16.10;99.90
3818;DHT22;1924;48.078;11.516;2023-08-06T09:20:23;15.90;99.90
3818;DHT22;1924;48.078;11.516;2023-08-06T09:22:52;16.00;99.90
3818;DHT22;1924;48.078;11.516;2023-08-06T09:25:22;16.00;99.90
3818;DHT22;1924;48.078;11.516;2023-08-06T09:27:50;16.00;99.90
3818;DHT22;1924;48.078;11.516;2023-08-06T09:30:29;15.90;99.90
3818;DHT22;1924;48.078;11.516;2023-08-06T09:32:58;15.90;99.90
3818;DHT22;1924;48.078;11.516;2023-08-06T09:35:28;16.00;99.90
3818;DHT22;1924;48.078;11.516;2023-08-06T09:37:55;16.00;99.90
3818;DHT22;1924;48.078;11.516;2023-08-06T09:40:26;16.30;99.90
3818;DHT22;1924;48.078;11.516;2023-08-06T09:42:53;16.60;99.90
3818;DHT22;1924;48.078;11.516;2023-08-06T09:45:23;16.80;99.90
3818;DHT22;1924;48.078;11.516;2023-08-06T09:47:50;16.90;99.90
3818;DHT22;1924;48.078;11.516;2023-08-06T09:50:17;16.80;99.90
3818;DHT22;1924;48.078;11.516;2023-08-06T09:52:46;16.80;99.90
3818;DHT22;1924;48.078;11.516;2023-08-06T09:55:14;16.90;99.90
3818;DHT22;1924;48.078;11.516;2023-08-06T09:57:41;16.90;99.90
3818;DHT22;1924;48.078;11.516;2023-08-06T10:00:09;16.80;99.90
3818;DHT22;1924;48.078;11.516;2023-08-06T10:02:38;16.70;99.90
3818;DHT22;1924;48.078;11.516;2023-08-06T10:05:05;16.60;99.90
3818;DHT22;1924;48.078;11.516;2023-08-06T10:07:32;16.80;99.90
3818;DHT22;1924;48.078;11.516;2023-08-06T10:10:02;17.00;99.90
3818;DHT22;1924;48.078;11.516;2023-08-06T10:12:31;17.20;99.90
3818;DHT22;1924;48.078;11.516;2023-08-06T10:15:01;17.30;99.90
3818;DHT22;1924;48.078;11.516;2023-08-06T10:17:31;17.50;99.90
3818;DHT22;1924;48.078;11.516;2023-08-06T10:20:00;17.50;99.90
3818;DHT22;1924;48.078;11.516;2023-08-06T10:22:26;17.40;99.90
3818;DHT22;1924;48.078;11.516;2023-08-06T10:24:54;17.40;99.90
3818;DHT22;1924;48.078;11.516;2023-08-06T10:27:29;17.50;99.90
3818;DHT22;1924;48.078;11.516;2023-08-06T10:29:56;17.80;99.90
3818;DHT22;1924;48.078;11.516;2023-08-06T10:32:46;17.70;99.90
3818;DHT22;1924;48.078;11.516;2023-08-06T10:35:28;17.60;99.90
3818;DHT22;1924;48.078;11.516;2023-08-06T10:37:58;17.30;99.90
3818;DHT22;1924;48.078;11.516;2023-08-06T10:40:25;17.10;99.90
3818;DHT22;1924;48.078;11.516;2023-08-06T10:42:53;17.10;99.90
3818;DHT22;1924;48.078;11.516;2023-08-06T10:45:20;17.00;99.90
3818;DHT22;1924;48.078;11.516;2023-08-06T10:47:49;16.90;99.90
3818;DHT22;1924;48.078;11.516;2023-08-06T10:50:17;16.70;99.90
3818;DHT22;1924;48.078;11.516;2023-08-06T10:52:44;16.80;99.90
3818;DHT22;1924;48.078;11.516;2023-08-06T10:55:11;16.80;99.90
3818;DHT22;1924;48.078;11.516;2023-08-06T10:57:38;17.00;99.90
3818;DHT22;1924;48.078;11.516;2023-08-06T11:00:07;17.10;99.90
3818;DHT22;1924;48.078;11.516;2023-08-06T11:02:35;17.10;99.90
3818;DHT22;1924;48.078;11.516;2023-08-06T11:05:06;17.10;99.90
3818;DHT22;1924;48.078;11.516;2023-08-06T11:07:33;17.10;99.90
3818;DHT22;1924;48.078;11.516;2023-08-06T11:10:03;17.20;99.90
3818;DHT22;1924;48.078;11.516;2023-08-06T11:12:32;17.30;99.90
3818;DHT22;1924;48.078;11.516;2023-08-06T11:14:59;17.30;99.90
3818;DHT22;1924;48.078;11.516;2023-08-06T11:17:30;17.20;99.90
3818;DHT22;1924;48.078;11.516;2023-08-06T11:19:59;17.20;99.90
3818;DHT22;1924;48.078;11.516;2023-08-06T11:22:26;17.10;99.90
3818;DHT22;1924;48.078;11.516;2023-08-06T11:24:53;17.00;99.90
3818;DHT22;1924;48.078;11.516;2023-08-06T11:27:20;16.80;99.90
3818;DHT22;1924;48.078;11.516;2023-08-06T11:29:47;16.80;99.90
3818;DHT22;1924;48.078;11.516;2023-08-06T11:32:14;16.90;99.90
3818;DHT22;1924;48.078;11.516;2023-08-06T11:34:44;16.80;99.90
3818;DHT22;1924;48.078;11.516;2023-08-06T11:37:11;16.80;99.90
3818;DHT22;1924;48.078;11.516;2023-08-06T11:39:38;16.80;99.90
3818;DHT22;1924;48.078;11.516;2023-08-06T11:42:12;16.80;99.90
3818;DHT22;1924;48.078;11.516;2023-08-06T11:44:40;16.70;99.90
3818;DHT22;1924;48.078;11.516;2023-08-06T11:47:12;16.80;99.90
3818;DHT22;1924;48.078;11.516;2023-08-06T11:49:42;16.70;99.90
3818;DHT22;1924;48.078;11.516;2023-08-06T11:52:13;16.60;99.90
3818;DHT22;1924;48.078;11.516;2023-08-06T11:54:40;16.70;99.90
3818;DHT22;1924;48.078;11.516;2023-08-06T11:57:07;16.70;99.90
3818;DHT22;1924;48.078;11.516;2023-08-06T11:59:34;16.80;99.90
3818;DHT22;1924;48.078;11.516;2023-08-06T12:02:02;16.80;99.90
3818;DHT22;1924;48.078;11.516;2023-08-06T12:04:31;16.90;99.90
3818;DHT22;1924;48.078;11.516;2023-08-06T12:07:06;16.80;99.90
3818;DHT22;1924;48.078;11.516;2023-08-06T12:09:34;16.80;99.90
3818;DHT22;1924;48.078;11.516;2023-08-06T12:12:02;16.90;99.90
3818;DHT22;1924;48.078;11.516;2023-08-06T12:14:29;16.80;99.90
3818;DHT22;1924;48.078;11.516;2023-08-06T12:16:56;16.80;99.90
3818;DHT22;1924;48.078;11.516;2023-08-06T12:19:23;16.70;99.90
3818;DHT22;1924;48.078;11.516;2023-08-06T12:21:52;16.70;99.90
3818;DHT22;1924;48.078;11.516;2023-08-06T12:24:20;16.60;99.90
3818;DHT22;1924;48.078;11.516;2023-08-06T12:26:47;16.60;99.90
3818;DHT22;1924;48.078;11.516;2023-08-06T12:29:13;16.60;99.90
3818;DHT22;1924;48.078;11.516;2023-08-06T12:31:40;16.60;99.90
3818;DHT22;1924;48.078;11.516;2023-08-06T12:34:07;16.50;99.90
3818;DHT22;1924;48.078;11.516;2023-08-06T12:36:33;16.50;99.90
3818;DHT22;1924;48.078;11.516;2023-08-06T12:39:00;16.40;99.90
3818;DHT22;1924;48.078;11.516;2023-08-06T12:41:28;16.40;99.90
3818;DHT22;1924;48.078;11.516;2023-08-06T12:43:55;16.40;99.90
3818;DHT22;1924;48.078;11.516;2023-08-06T12:46:21;16.50;99.90
3818;DHT22;1924;48.078;11.516;2023-08-06T12:48:48;16.40;99.90
3818;DHT22;1924;48.078;11.516;2023-08-06T12:51:15;16.30;99.90
3818;DHT22;1924;48.078;11.516;2023-08-06T12:53:42;16.30;99.90
3818;DHT22;1924;48.078;11.516;2023-08-06T12:56:08;16.20;99.90
3818;DHT22;1924;48.078;11.516;2023-08-06T12:58:36;16.20;99.90
3818;DHT22;1924;48.078;11.516;2023-08-06T13:01:05;16.10;99.90
3818;DHT22;1924;48.078;11.516;2023-08-06T13:03:32;16.00;99.90
3818;DHT22;1924;48.078;11.516;2023-08-06T13:05:58;15.90;99.90
3818;DHT22;1924;48.078;11.516;2023-08-06T13:08:25;16.00;99.90
3818;DHT22;1924;48.078;11.516;2023-08-06T13:10:52;16.10;99.90
3818;DHT22;1924;48.078;11.516;2023-08-06T13:13:18;16.10;99.90
3818;DHT22;1924;48.078;11.516;2023-08-06T13:15:47;15.90;99.90
3818;DHT22;1924;48.078;11.516;2023-08-06T13:18:13;16.00;99.90
3818;DHT22;1924;48.078;11.516;2023-08-06T13:20:40;16.10;99.90
3818;DHT22;1924;48.078;11.516;2023-08-06T13:23:07;16.00;99.90
3818;DHT22;1924;48.078;11.516;2023-08-06T13:25:34;15.90;99.90
3818;DHT22;1924;48.078;11.516;2023-08-06T13:28:02;15.70;99.90
3818;DHT22;1924;48.078;11.516;2023-08-06T13:30:29;15.60;99.90
3818;DHT22;1924;48.078;11.516;2023-08-06T13:32:57;15.50;99.90
3818;DHT22;1924;48.078;11.516;2023-08-06T13:35:24;15.60;99.90
3818;DHT22;1924;48.078;11.516;2023-08-06T13:37:51;15.60;99.90
3818;DHT22;1924;48.078;11.516;2023-08-06T13:40:18;15.70;99.90
3818;DHT22;1924;48.078;11.516;2023-08-06T13:42:45;15.80;99.90
3818;DHT22;1924;48.078;11.516;2023-08-06T13:45:12;15.90;99.90
3818;DHT22;1924;48.078;11.516;2023-08-06T13:47:38;16.10;99.90
3818;DHT22;1924;48.078;11.516;2023-08-06T13:50:07;16.10;99.90
3818;DHT22;1924;48.078;11.516;2023-08-06T13:52:34;16.00;99.90
3818;DHT22;1924;48.078;11.516;2023-08-06T13:55:01;16.00;99.90
3818;DHT22;1924;48.078;11.516;2023-08-06T13:57:29;15.70;99.90
3818;DHT22;1924;48.078;11.516;2023-08-06T13:59:56;15.70;99.90
3818;DHT22;1924;48.078;11.516;2023-08-06T14:02:23;15.70;99.90
3818;DHT22;1924;48.078;11.516;2023-08-06T14:04:51;15.70;99.90
3818;DHT22;1924;48.078;11.516;2023-08-06T14:07:19;15.60;99.90
3818;DHT22;1924;48.078;11.516;2023-08-06T14:09:46;15.60;99.90
3818;DHT22;1924;48.078;11.516;2023-08-06T14:12:16;15.60;99.90
3818;DHT22;1924;48.078;11.516;2023-08-06T14:14:42;15.60;99.90
3818;DHT22;1924;48.078;11.516;2023-08-06T14:17:09;15.80;99.90
3818;DHT22;1924;48.078;11.516;2023-08-06T14:19:36;15.80;99.90
3818;DHT22;1924;48.078;11.516;2023-08-06T14:22:02;15.60;99.90
3818;DHT22;1924;48.078;11.516;2023-08-06T14:24:30;15.50;99.90
3818;DHT22;1924;48.078;11.516;2023-08-06T14:26:57;15.40;99.90
3818;DHT22;1924;48.078;11.516;2023-08-06T14:29:24;15.30;99.90
3818;DHT22;1924;48.078;11.516;2023-08-06T14:31:51;15.20;99.90
3818;DHT22;1924;48.078;11.516;2023-08-06T14:34:18;15.00;99.90
3818;DHT22;1924;48.078;11.516;2023-08-06T14:36:44;15.00;99.90
3818;DHT22;1924;48.078;11.516;2023-08-06T14:39:11;15.00;99.90
3818;DHT22;1924;48.078;11.516;2023-08-06T14:41:39;14.80;99.90
3818;DHT22;1924;48.078;11.516;2023-08-06T14:44:06;14.90;99.90
3818;DHT22;1924;48.078;11.516;2023-08-06T14:46:33;14.90;99.90
3818;DHT22;1924;48.078;11.516;2023-08-06T14:49:00;14.90;99.90
3818;DHT22;1924;48.078;11.516;2023-08-06T14:51:26;14.90;99.90
3818;DHT22;1924;48.078;11.516;2023-08-06T14:53:53;14.90;99.90
3818;DHT22;1924;48.078;11.516;2023-08-06T14:56:20;14.70;99.90
3818;DHT22;1924;48.078;11.516;2023-08-06T14:58:49;14.70;99.90
3818;DHT22;1924;48.078;11.516;2023-08-06T15:01:16;14.70;99.90
3818;DHT22;1924;48.078;11.516;2023-08-06T15:03:43;14.60;99.90
3818;DHT22;1924;48.078;11.516;2023-08-06T15:06:09;14.60;99.90
3818;DHT22;1924;48.078;11.516;2023-08-06T15:08:37;14.60;99.90
3818;DHT22;1924;48.078;11.516;2023-08-06T15:11:04;14.60;99.90
3818;DHT22;1924;48.078;11.516;2023-08-06T15:13:31;14.60;99.90
3818;DHT22;1924;48.078;11.516;2023-08-06T15:15:59;14.60;99.90
3818;DHT22;1924;48.078;11.516;2023-08-06T15:18:26;14.50;99.90
3818;DHT22;1924;48.078;11.516;2023-08-06T15:20:53;14.50;99.90
3818;DHT22;1924;48.078;11.516;2023-08-06T15:23:19;14.60;99.90
3818;DHT22;1924;48.078;11.516;2023-08-06T15:25:46;14.70;99.90
3818;DHT22;1924;48.078;11.516;2023-08-06T15:28:13;14.60;99.90
3818;DHT22;1924;48.078;11.516;2023-08-06T15:30:39;14.60;99.90
3818;DHT22;1924;48.078;11.516;2023-08-06T15:33:12;14.70;99.90
3818;DHT22;1924;48.078;11.516;2023-08-06T15:35:38;14.70;99.90
3818;DHT22;1924;48.078;11.516;2023-08-06T15:38:05;14.50;99.90
3818;DHT22;1924;48.078;11.516;2023-08-06T15:40:32;14.50;99.90
3818;DHT22;1924;48.078;11.516;2023-08-06T15:42:58;14.50;99.90
3818;DHT22;1924;48.078;11.516;2023-08-06T15:45:25;14.50;99.90
3818;DHT22;1924;48.078;11.516;2023-08-06T15:47:52;14.50;99.90
3818;DHT22;1924;48.078;11.516;2023-08-06T15:50:20;14.60;99.90
3818;DHT22;1924;48.078;11.516;2023-08-06T15:52:47;14.60;99.90
3818;DHT22;1924;48.078;11.516;2023-08-06T15:55:13;14.60;99.90
3818;DHT22;1924;48.078;11.516;2023-08-06T15:57:40;14.60;99.90
3818;DHT22;1924;48.078;11.516;2023-08-06T16:00:09;14.70;99.90
3818;DHT22;1924;48.078;11.516;2023-08-06T16:02:36;14.70;99.90
3818;DHT22;1924;48.078;11.516;2023-08-06T16:05:03;14.70;99.90
3818;DHT22;1924;48.078;11.516;2023-08-06T16:07:31;14.70;99.90
3818;DHT22;1924;48.078;11.516;2023-08-06T16:09:58;14.70;99.90
3818;DHT22;1924;48.078;11.516;2023-08-06T16:12:24;14.70;99.90
3818;DHT22;1924;48.078;11.516;2023-08-06T16:14:51;14.80;99.90
3818;DHT22;1924;48.078;11.516;2023-08-06T16:17:18;14.80;99.90
3818;DHT22;1924;48.078;11.516;2023-08-06T16:19:45;14.60;99.90
3818;DHT22;1924;48.078;11.516;2023-08-06T16:22:12;14.50;99.90
3818;DHT22;1924;48.078;11.516;2023-08-06T16:24:42;14.50;99.90
3818;DHT22;1924;48.078;11.516;2023-08-06T16:27:09;14.50;99.90
3818;DHT22;1924;48.078;11.516;2023-08-06T16:29:36;14.50;99.90
3818;DHT22;1924;48.078;11.516;2023-08-06T16:32:03;14.50;99.90
3818;DHT22;1924;48.078;11.516;2023-08-06T16:34:31;14.50;99.90
3818;DHT22;1924;48.078;11.516;2023-08-06T16:36:58;14.40;99.90
3818;DHT22;1924;48.078;11.516;2023-08-06T16:39:25;14.40;99.90
3818;DHT22;1924;48.078;11.516;2023-08-06T16:41:54;14.40;99.90
3818;DHT22;1924;48.078;11.516;2023-08-06T16:44:23;14.30;99.90
3818;DHT22;1924;48.078;11.516;2023-08-06T16:46:50;14.30;99.90
3818;DHT22;1924;48.078;11.516;2023-08-06T16:49:16;14.20;99.90
3818;DHT22;1924;48.078;11.516;2023-08-06T16:51:43;14.20;99.90
3818;DHT22;1924;48.078;11.516;2023-08-06T16:54:10;14.30;99.90
3818;DHT22;1924;48.078;11.516;2023-08-06T16:56:36;14.30;99.90
3818;DHT22;1924;48.078;11.516;2023-08-06T16:59:04;14.30;99.90
3818;DHT22;1924;48.078;11.516;2023-08-06T17:01:31;14.40;99.90
3818;DHT22;1924;48.078;11.516;2023-08-06T17:03:58;14.40;99.90
3818;DHT22;1924;48.078;11.516;2023-08-06T17:06:25;14.40;99.90
3818;DHT22;1924;48.078;11.516;2023-08-06T17:08:51;14.40;99.90
3818;DHT22;1924;48.078;11.516;2023-08-06T17:11:18;14.40;99.90
3818;DHT22;1924;48.078;11.516;2023-08-06T17:13:45;14.50;99.90
3818;DHT22;1924;48.078;11.516;2023-08-06T17:16:13;14.40;99.90
3818;DHT22;1924;48.078;11.516;2023-08-06T17:18:40;14.40;99.90
3818;DHT22;1924;48.078;11.516;2023-08-06T17:21:08;14.40;99.90
3818;DHT22;1924;48.078;11.516;2023-08-06T17:23:34;14.40;99.90
3818;DHT22;1924;48.078;11.516;2023-08-06T17:26:01;14.20;99.90
3818;DHT22;1924;48.078;11.516;2023-08-06T17:28:28;14.20;99.90
3818;DHT22;1924;48.078;11.516;2023-08-06T17:30:55;14.10;99.90
3818;DHT22;1924;48.078;11.516;2023-08-06T17:33:23;14.20;99.90
3818;DHT22;1924;48.078;11.516;2023-08-06T17:35:50;14.00;99.90
3818;DHT22;1924;48.078;11.516;2023-08-06T17:38:16;14.00;99.90
3818;DHT22;1924;48.078;11.516;2023-08-06T17:40:43;14.00;99.90
3818;DHT22;1924;48.078;11.516;2023-08-06T17:43:10;13.90;99.90
3818;DHT22;1924;48.078;11.516;2023-08-06T17:45:37;13.90;99.90
3818;DHT22;1924;48.078;11.516;2023-08-06T17:48:04;13.90;99.90
3818;DHT22;1924;48.078;11.516;2023-08-06T17:50:32;13.90;99.90
3818;DHT22;1924;48.078;11.516;2023-08-06T17:52:59;13.90;99.90
3818;DHT22;1924;48.078;11.516;2023-08-06T17:55:26;13.90;99.90
3818;DHT22;1924;48.078;11.516;2023-08-06T17:57:52;13.80;99.90
3818;DHT22;1924;48.078;11.516;2023-08-06T18:00:19;13.80;99.90
3818;DHT22;1924;48.078;11.516;2023-08-06T18:02:50;13.80;99.90
3818;DHT22;1924;48.078;11.516;2023-08-06T18:05:17;13.90;99.90
3818;DHT22;1924;48.078;11.516;2023-08-06T18:07:45;13.80;99.90
3818;DHT22;1924;48.078;11.516;2023-08-06T18:10:12;13.80;99.90
3818;DHT22;1924;48.078;11.516;2023-08-06T18:12:39;13.70;99.90
3818;DHT22;1924;48.078;11.516;2023-08-06T18:15:08;13.70;99.90
3818;DHT22;1924;48.078;11.516;2023-08-06T18:17:36;13.70;99.90
3818;DHT22;1924;48.078;11.516;2023-08-06T18:20:03;13.60;99.90
3818;DHT22;1924;48.078;11.516;2023-08-06T18:22:30;13.70;99.90
3818;DHT22;1924;48.078;11.516;2023-08-06T18:24:58;13.60;99.90
3818;DHT22;1924;48.078;11.516;2023-08-06T18:27:27;13.60;99.90
3818;DHT22;1924;48.078;11.516;2023-08-06T18:29:54;13.60;99.90
3818;DHT22;1924;48.078;11.516;2023-08-06T18:32:21;13.60;99.90
3818;DHT22;1924;48.078;11.516;2023-08-06T18:34:48;13.60;99.90
3818;DHT22;1924;48.078;11.516;2023-08-06T18:37:14;13.60;99.90
3818;DHT22;1924;48.078;11.516;2023-08-06T18:39:41;13.60;99.90
3818;DHT22;1924;48.078;11.516;2023-08-06T18:42:10;13.50;99.90
3818;DHT22;1924;48.078;11.516;2023-08-06T18:44:36;13.50;99.90
3818;DHT22;1924;48.078;11.516;2023-08-06T18:47:03;13.50;99.90
3818;DHT22;1924;48.078;11.516;2023-08-06T18:49:30;13.50;99.90
3818;DHT22;1924;48.078;11.516;2023-08-06T18:51:57;13.60;99.90
3818;DHT22;1924;48.078;11.516;2023-08-06T18:54:23;13.40;99.90
3818;DHT22;1924;48.078;11.516;2023-08-06T18:56:51;13.40;99.90
3818;DHT22;1924;48.078;11.516;2023-08-06T18:59:19;13.40;99.90
3818;DHT22;1924;48.078;11.516;2023-08-06T19:01:48;13.40;99.90
3818;DHT22;1924;48.078;11.516;2023-08-06T19:04:15;13.50;99.90
3818;DHT22;1924;48.078;11.516;2023-08-06T19:06:43;13.50;99.90
3818;DHT22;1924;48.078;11.516;2023-08-06T19:09:09;13.40;99.90
3818;DHT22;1924;48.078;11.516;2023-08-06T19:11:36;13.40;99.90
3818;DHT22;1924;48.078;11.516;2023-08-06T19:14:03;13.30;99.90
3818;DHT22;1924;48.078;11.516;2023-08-06T19:16:31;13.30;99.90
3818;DHT22;1924;48.078;11.516;2023-08-06T19:18:58;13.30;99.90
3818;DHT22;1924;48.078;11.516;2023-08-06T19:21:25;13.40;99.90
3818;DHT22;1924;48.078;11.516;2023-08-06T19:23:51;13.40;99.90
3818;DHT22;1924;48.078;11.516;2023-08-06T19:26:18;13.30;99.90
3818;DHT22;1924;48.078;11.516;2023-08-06T19:28:45;13.30;99.90
3818;DHT22;1924;48.078;11.516;2023-08-06T19:31:12;13.20;99.90
3818;DHT22;1924;48.078;11.516;2023-08-06T19:33:40;13.20;99.90
3818;DHT22;1924;48.078;11.516;2023-08-06T19:36:07;13.20;99.90
3818;DHT22;1924;48.078;11.516;2023-08-06T19:38:33;13.20;99.90
3818;DHT22;1924;48.078;11.516;2023-08-06T19:41:05;13.10;99.90